Time;durP1;ratioP1;P1;durP2;ratioP2;P2;SDS_P1;SDS_P2;PMS_P1;PMS_P2;Temp;Humidity;BMP_temperature;BMP_pressure;BME280_temperature;BME280_humidity;BME280_pressure;Samples;Min_cycle;Max_cycle;Signal;HPM_P1;HPM_P2
2022/12/17 13:06:10;;;;;;;0.40;0.40;;;;;;;15.18;64.96;95106.97;5012290;28;20816;-68
2022/12/17 13:08:38;;;;;;;1.53;1.20;;;;;;;15.23;65.31;95104.28;5012051;28;20459;-65
2022/12/17 13:11:29;;;;;;;0.63;0.63;;;;;;;15.37;64.30;95117.59;5011673;28;20452;-71
2022/12/17 13:14:05;;;;;;;0.10;0.10;;;;;;;15.31;63.35;95097.59;5011488;28;20528;-67
2022/12/17 13:16:58;;;;;;;2.30;0.33;;;;;;;14.44;67.32;95100.44;5022966;28;20458;-65
2022/12/17 13:19:31;;;;;;;0.10;0.10;;;;;;;14.60;67.58;95100.06;5010744;28;20535;-67
2022/12/17 13:22:25;;;;;;;0.47;0.47;;;;;;;14.36;67.77;95099.16;5011282;28;20437;-69
2022/12/17 13:24:56;;;;;;;0.00;0.00;;;;;;;14.29;67.15;95109.22;5010102;28;20543;-66
2022/12/17 13:27:34;;;;;;;1.13;1.03;;;;;;;14.32;67.59;95113.97;5007747;28;20444;-66
2022/12/17 13:30:16;;;;;;;1.07;0.90;;;;;;;14.82;65.89;95118.88;5008304;28;20452;-69
2022/12/17 13:32:55;;;;;;;0.03;0.03;;;;;;;14.96;64.82;95122.47;5008315;28;20452;-67
2022/12/17 13:35:57;;;;;;;0.10;0.10;;;;;;;15.00;65.14;95120.84;5010211;28;20499;-68
2022/12/17 13:38:48;;;;;;;1.80;1.60;;;;;;;14.62;66.68;95129.59;5006791;28;20481;-68
2022/12/17 13:41:21;;;;;;;0.43;0.43;;;;;;;15.11;65.52;95126.81;5010692;28;20440;-67
2022/12/17 13:43:52;;;;;;;1.37;1.27;;;;;;;14.98;64.93;95122.97;5010612;28;20440;-67
2022/12/17 13:46:26;;;;;;;1.47;1.07;;;;;;;14.95;65.94;95128.81;5010931;28;20512;-68
2022/12/17 13:48:53;;;;;;;0.07;0.07;;;;;;;14.83;65.54;95138.16;5010700;28;20440;-66
2022/12/17 13:51:22;;;;;;;0.00;0.00;;;;;;;14.99;65.23;95140.41;5010937;28;20506;-68
2022/12/17 13:54:15;;;;;;;0.73;0.70;;;;;;;14.74;65.30;95131.88;5010414;28;20531;-69
2022/12/17 13:56:43;;;;;;;3.93;0.93;;;;;;;14.62;66.47;95150.69;5010376;28;20437;-66
2022/12/17 13:59:17;;;;;;;1.60;1.30;;;;;;;14.88;65.53;95133.63;5010486;28;20523;-69
2022/12/17 14:01:48;;;;;;;0.57;0.57;;;;;;;14.60;66.32;95136.97;5010657;28;20539;-66
2022/12/17 14:04:20;;;;;;;0.00;0.00;;;;;;;14.44;67.55;95142.63;5010459;28;20448;-67
2022/12/17 14:06:48;;;;;;;6.60;2.17;;;;;;;14.64;66.46;95143.28;5010752;28;20460;-67
2022/12/17 14:09:17;;;;;;;0.30;0.30;;;;;;;14.40;67.07;95152.94;5010285;28;21006;-69
2022/12/17 14:14:39;;;;;;;0.83;0.83;;;;;;;14.23;68.54;95152.47;5009584;28;20475;-66
2022/12/17 14:17:32;;;;;;;0.37;0.37;;;;;;;14.75;66.93;95144.81;5010532;28;20456;-65
2022/12/17 14:20:21;;;;;;;1.20;1.07;;;;;;;14.96;66.19;95167.31;4999515;28;20495;-65
2022/12/17 14:22:54;;;;;;;2.17;1.50;;;;;;;14.43;67.54;95162.94;5005414;28;20555;-69
2022/12/17 14:25:39;;;;;;;0.10;0.10;;;;;;;14.70;67.06;95167.78;5009691;28;20448;-68
2022/12/17 14:28:28;;;;;;;0.23;0.23;;;;;;;14.92;65.44;95166.31;5010094;28;20453;-69
2022/12/17 14:31:13;;;;;;;0.77;0.77;;;;;;;13.87;69.42;95174.75;4998116;28;20498;-67
2022/12/17 14:34:19;;;;;;;0.70;0.70;;;;;;;14.27;68.54;95173.84;5008590;28;20516;-67
2022/12/17 14:36:54;;;;;;;3.77;1.40;;;;;;;14.41;67.58;95175.63;5009470;28;20556;-72
2022/12/17 14:39:26;;;;;;;0.43;0.40;;;;;;;14.59;67.40;95182.09;5009595;28;20468;-69
2022/12/17 14:45:05;;;;;;;0.43;0.43;;;;;;;14.86;65.55;95164.78;5009653;28;20480;-67
2022/12/17 14:47:36;;;;;;;0.37;0.37;;;;;;;14.98;64.94;95175.00;5009976;28;20499;-68
2022/12/17 14:50:24;;;;;;;0.77;0.77;;;;;;;14.42;66.32;95182.44;5009526;28;20449;-69
2022/12/17 14:52:53;;;;;;;0.27;0.27;;;;;;;13.91;68.52;95181.06;5003013;28;20511;-71
2022/12/17 14:55:26;;;;;;;0.23;0.23;;;;;;;14.06;68.12;95179.16;4996822;28;20507;-69
2022/12/17 14:58:06;;;;;;;0.40;0.40;;;;;;;14.50;66.79;95181.88;5009857;28;20594;-67
2022/12/17 15:00:38;;;;;;;0.80;0.80;;;;;;;14.62;66.38;95190.25;5009914;28;20448;-69
2022/12/17 15:03:05;;;;;;;0.80;0.80;;;;;;;14.46;65.64;95187.97;5009970;28;20556;-71
2022/12/17 15:05:34;;;;;;;1.30;0.37;;;;;;;14.29;66.48;95185.66;5008793;28;20448;-68
2022/12/17 15:08:00;;;;;;;0.07;0.07;;;;;;;14.46;65.68;95199.31;5008674;28;20877;-66
2022/12/17 15:10:27;;;;;;;1.23;1.13;;;;;;;14.48;65.68;95181.38;5009019;28;20476;-71
2022/12/17 15:12:54;;;;;;;0.77;0.77;;;;;;;14.42;65.50;95187.72;5009333;28;20507;-68
2022/12/17 15:15:21;;;;;;;2.13;0.87;;;;;;;14.19;66.08;95219.97;5008975;28;20469;-69
2022/12/17 15:17:48;;;;;;;3.70;2.73;;;;;;;13.77;67.76;95216.94;5008540;28;20437;-71
2022/12/17 15:20:17;;;;;;;0.40;0.40;;;;;;;13.87;67.70;95199.25;5009086;28;20579;-69
2022/12/17 15:22:45;;;;;;;0.47;0.47;;;;;;;13.63;68.49;95194.84;5009281;28;20444;-67
2022/12/17 15:25:14;;;;;;;0.93;0.90;;;;;;;13.75;67.44;95235.63;5006755;28;20525;-66
2022/12/17 15:27:41;;;;;;;0.47;0.47;;;;;;;13.98;67.30;95224.50;5008033;28;20449;-66
2022/12/17 15:30:16;;;;;;;0.67;0.67;;;;;;;14.35;66.03;95229.41;5008026;28;20571;-69
2022/12/17 15:32:44;;;;;;;1.17;0.93;;;;;;;13.68;69.08;95231.69;5007227;28;20454;-67
2022/12/17 15:35:12;;;;;;;0.50;0.50;;;;;;;13.41;69.76;95239.09;5007372;28;20452;-69
2022/12/17 15:37:39;;;;;;;0.50;0.50;;;;;;;13.77;68.12;95232.72;5008337;28;20477;-67
2022/12/17 15:40:06;;;;;;;3.03;2.10;;;;;;;13.96;66.95;95245.06;5008167;28;20508;-70
2022/12/17 15:45:18;;;;;;;0.43;0.43;;;;;;;14.01;66.92;95239.00;5001565;28;20955;-68
2022/12/17 15:47:48;;;;;;;2.20;1.50;;;;;;;13.86;67.57;95233.75;5009125;28;20527;-71
2022/12/17 15:50:15;;;;;;;0.67;0.67;;;;;;;13.91;67.12;95228.47;5008521;28;20453;-65
2022/12/17 15:52:41;;;;;;;3.20;2.90;;;;;;;14.10;67.14;95232.13;5007117;28;20873;-68
2022/12/17 15:55:08;;;;;;;0.70;0.70;;;;;;;13.66;67.53;95237.22;5007105;28;20531;-66
2022/12/17 15:57:39;;;;;;;0.53;0.53;;;;;;;13.81;67.14;95239.03;5007426;28;20539;-70
2022/12/17 16:00:07;;;;;;;0.30;0.30;;;;;;;13.74;67.49;95233.28;5007912;28;21000;-71
2022/12/17 16:02:35;;;;;;;1.37;0.97;;;;;;;13.75;67.51;95242.72;5008029;28;20429;-68
2022/12/17 16:05:03;;;;;;;2.63;1.53;;;;;;;13.71;68.05;95250.38;5008522;28;20467;-68
2022/12/17 16:07:30;;;;;;;1.53;1.43;;;;;;;13.71;67.86;95249.59;5007394;28;20472;-69
2022/12/17 16:09:57;;;;;;;4.33;2.40;;;;;;;13.35;67.92;95253.28;5008734;28;20496;-67
2022/12/17 16:12:31;;;;;;;1.77;1.67;;;;;;;13.55;67.89;95255.91;5006489;28;20455;-69
2022/12/17 16:14:58;;;;;;;0.57;0.57;;;;;;;13.52;68.10;95257.22;5007655;28;20479;-68
2022/12/17 16:17:25;;;;;;;1.70;1.23;;;;;;;12.99;69.73;95266.38;5007998;28;20448;-68
2022/12/17 16:19:53;;;;;;;1.33;1.27;;;;;;;13.18;68.79;95251.72;5008070;28;20469;-70
2022/12/17 16:22:20;;;;;;;0.40;0.40;;;;;;;13.49;67.73;95264.88;5008159;28;21091;-67
2022/12/17 16:24:47;;;;;;;0.70;0.70;;;;;;;13.80;66.65;95269.06;5006261;28;20499;-73
2022/12/17 16:27:16;;;;;;;0.73;0.73;;;;;;;13.67;66.64;95277.50;5008524;28;20830;-68
2022/12/17 16:29:45;;;;;;;0.87;0.87;;;;;;;13.65;67.12;95277.00;5008888;28;20535;-68
2022/12/17 16:32:14;;;;;;;4.23;0.93;;;;;;;13.89;66.75;95291.16;5008455;28;20441;-65
2022/12/17 16:34:42;;;;;;;5.60;3.70;;;;;;;13.42;68.45;95288.03;5006502;28;20857;-63
2022/12/17 16:37:09;;;;;;;0.40;0.40;;;;;;;13.21;67.10;95298.56;5006919;28;20440;-68
2022/12/17 16:39:36;;;;;;;1.53;0.70;;;;;;;13.50;67.02;95295.44;5010417;28;20484;-68
2022/12/17 16:42:03;;;;;;;1.13;1.03;;;;;;;13.59;66.89;95301.75;5010918;28;20453;-66
2022/12/17 16:44:29;;;;;;;1.90;1.70;;;;;;;13.03;67.31;95300.88;5011072;28;20914;-66
2022/12/17 16:46:56;;;;;;;2.47;2.27;;;;;;;13.40;66.84;95304.09;5011980;28;20444;-66
2022/12/17 16:49:25;;;;;;;1.17;1.07;;;;;;;13.35;67.18;95303.31;5022059;28;20472;-67
2022/12/17 16:51:53;;;;;;;0.40;0.40;;;;;;;13.35;66.22;95303.31;5011211;28;20433;-67
2022/12/17 16:54:24;;;;;;;0.90;0.90;;;;;;;13.06;66.61;95311.66;5012143;28;20448;-68
2022/12/17 16:56:52;;;;;;;0.60;0.60;;;;;;;13.25;66.63;95319.09;5011675;28;20443;-67
2022/12/17 16:59:19;;;;;;;0.83;0.83;;;;;;;12.49;69.53;95321.47;5010914;28;20566;-66
2022/12/17 17:01:48;;;;;;;2.63;1.40;;;;;;;12.54;69.42;95328.56;5010493;28;20476;-67
2022/12/17 17:04:17;;;;;;;8.60;2.23;;;;;;;12.55;69.08;95328.34;5010717;28;20523;-65
2022/12/17 17:06:55;;;;;;;0.50;0.50;;;;;;;12.64;68.42;95329.44;5011276;28;20436;-65
2022/12/17 17:09:24;;;;;;;1.97;1.87;;;;;;;12.94;68.09;95334.78;5010322;28;20437;-65
2022/12/17 17:11:55;;;;;;;2.57;1.07;;;;;;;12.14;69.73;95339.66;5011434;28;20460;-65
2022/12/17 17:14:22;;;;;;;1.43;1.33;;;;;;;12.42;69.14;95341.94;5011118;28;20480;-68
2022/12/17 17:16:50;;;;;;;1.70;1.17;;;;;;;12.72;67.93;95342.06;5011310;28;20444;-66
2022/12/17 17:19:17;;;;;;;1.43;1.33;;;;;;;12.82;67.61;95349.19;5010715;28;20987;-67
2022/12/17 17:21:52;;;;;;;1.07;1.07;;;;;;;12.89;67.32;95342.66;5011626;28;20499;-67
2022/12/17 17:24:22;;;;;;;1.83;1.73;;;;;;;12.43;68.59;95343.50;5011096;28;20836;-67
2022/12/17 17:26:51;;;;;;;0.40;0.40;;;;;;;12.48;68.47;95351.41;5011000;28;20499;-68
2022/12/17 17:29:18;;;;;;;0.63;0.63;;;;;;;12.37;67.99;95360.28;5011158;28;20448;-67
2022/12/17 17:31:45;;;;;;;0.50;0.50;;;;;;;12.62;67.39;95362.28;5010979;28;20457;-68
2022/12/17 17:34:32;;;;;;;2.27;1.83;;;;;;;12.71;67.36;95364.16;5010365;28;20540;-67
2022/12/17 17:37:02;;;;;;;0.77;0.77;;;;;;;13.04;67.93;95366.41;5010816;28;20472;-66
2022/12/17 17:39:31;;;;;;;4.37;3.40;;;;;;;13.06;66.92;95369.56;5011085;28;20484;-67
2022/12/17 17:41:59;;;;;;;2.07;1.87;;;;;;;12.77;66.05;95360.47;5010031;28;20445;-68
2022/12/17 17:44:26;;;;;;;2.10;1.47;;;;;;;12.95;66.23;95357.41;5010601;28;20441;-67
2022/12/17 17:46:53;;;;;;;3.03;1.47;;;;;;;13.10;66.18;95385.63;5010048;28;20527;-68
2022/12/17 17:49:20;;;;;;;1.07;1.00;;;;;;;13.35;66.05;95377.81;5009422;28;20477;-66
2022/12/17 17:51:46;;;;;;;2.77;2.13;;;;;;;13.34;65.66;95385.97;5009698;28;20441;-69
2022/12/17 17:54:33;;;;;;;1.63;1.53;;;;;;;13.45;65.41;95377.03;5009686;28;20436;-67
2022/12/17 17:57:00;;;;;;;2.87;2.37;;;;;;;13.47;65.34;95385.44;5008699;28;20456;-67
2022/12/17 17:59:27;;;;;;;1.20;1.10;;;;;;;12.92;66.23;95389.47;5008696;28;20478;-66
2022/12/17 18:01:59;;;;;;;1.63;1.37;;;;;;;12.87;66.44;95381.56;5007766;28;20441;-69
2022/12/17 18:04:27;;;;;;;3.40;1.93;;;;;;;12.61;67.41;95371.22;5012066;28;20480;-67
2022/12/17 18:06:54;;;;;;;1.17;1.17;;;;;;;12.89;66.92;95404.97;5009946;28;20433;-67
2022/12/17 18:09:40;;;;;;;1.03;1.03;;;;;;;12.94;66.31;95408.44;5006882;28;20444;-65
2022/12/17 18:14:53;;;;;;;1.03;1.03;;;;;;;12.12;67.74;95441.56;5008817;28;20542;-69
2022/12/17 18:17:40;;;;;;;1.13;0.60;;;;;;;11.66;68.60;95443.03;5009837;28;20432;-68
2022/12/17 18:20:08;;;;;;;1.97;1.87;;;;;;;11.21;71.71;95439.91;5009494;28;20534;-66
2022/12/17 18:22:35;;;;;;;4.43;2.53;;;;;;;11.49;71.56;95441.50;5009760;28;20499;-66
2022/12/17 18:25:03;;;;;;;3.30;2.77;;;;;;;11.77;70.45;95446.56;5009610;28;20858;-67
2022/12/17 18:27:30;;;;;;;2.07;1.83;;;;;;;11.35;70.31;95451.59;5006479;28;20464;-69
2022/12/17 18:29:57;;;;;;;3.47;2.80;;;;;;;11.16;72.46;95451.16;5009663;28;20444;-68
2022/12/17 18:32:24;;;;;;;6.17;3.03;;;;;;;11.58;71.22;95451.31;5009479;28;21082;-67
2022/12/17 18:34:51;;;;;;;5.13;2.77;;;;;;;11.77;70.92;95464.94;5009625;28;20498;-68
2022/12/17 18:37:19;;;;;;;3.97;3.67;;;;;;;12.18;69.94;95467.66;5009922;28;20524;-68
2022/12/17 18:39:47;;;;;;;1.63;1.53;;;;;;;12.02;70.94;95459.91;5005810;28;20481;-67
2022/12/17 18:45:02;;;;;;;1.53;1.43;;;;;;;12.04;70.20;95469.09;5009185;28;20499;-66
2022/12/17 18:47:29;;;;;;;1.60;1.47;;;;;;;12.17;69.64;95463.44;5008772;28;20586;-69
2022/12/17 18:49:56;;;;;;;2.67;2.47;;;;;;;12.15;71.32;95476.03;5012975;28;20453;-65
2022/12/17 18:52:23;;;;;;;1.13;1.10;;;;;;;12.52;69.46;95478.66;5008429;28;20488;-70
2022/12/17 18:54:50;;;;;;;1.50;1.40;;;;;;;11.93;70.26;95485.81;5008016;28;20433;-68
2022/12/17 18:57:16;;;;;;;9.00;3.20;;;;;;;12.00;70.03;95490.88;5009036;28;20890;-64
2022/12/17 18:59:43;;;;;;;1.17;1.07;;;;;;;12.18;69.57;95503.63;5009055;28;20571;-67
2022/12/17 19:02:12;;;;;;;2.10;2.00;;;;;;;11.84;71.03;95502.28;4996326;28;20437;-67
2022/12/17 19:04:39;;;;;;;2.80;2.43;;;;;;;11.90;70.18;95503.91;5008041;28;20448;-67
2022/12/17 19:07:06;;;;;;;0.50;0.50;;;;;;;11.91;70.06;95503.69;5009114;28;20461;-68
2022/12/17 19:09:34;;;;;;;5.33;1.73;;;;;;;12.08;68.98;95508.78;5008292;28;20455;-66
2022/12/17 19:12:06;;;;;;;1.93;1.43;;;;;;;12.55;68.03;95514.19;5008443;28;20499;-66
2022/12/17 19:14:33;;;;;;;1.27;0.50;;;;;;;12.35;68.81;95508.78;5008250;28;20508;-69
2022/12/17 19:17:00;;;;;;;1.70;0.30;;;;;;;12.00;69.56;95517.13;5009403;28;20511;-73
2022/12/17 19:19:27;;;;;;;0.17;0.17;;;;;;;12.11;69.69;95526.69;5009548;28;20961;-74
2022/12/17 19:21:54;;;;;;;1.13;1.03;;;;;;;11.77;70.33;95533.97;5008985;28;20440;-67
2022/12/17 19:24:22;;;;;;;0.53;0.43;;;;;;;12.09;69.87;95536.66;5006117;28;20960;-65
2022/12/17 19:26:49;;;;;;;5.00;3.30;;;;;;;11.64;71.19;95538.78;5005044;28;20895;-67
2022/12/17 19:29:18;;;;;;;1.53;1.43;;;;;;;11.72;70.76;95546.25;5006521;28;20567;-65
2022/12/17 19:31:45;;;;;;;0.80;0.80;;;;;;;11.86;70.79;95547.47;5004735;28;20872;-66
2022/12/17 19:34:14;;;;;;;0.53;0.53;;;;;;;12.09;69.79;95552.41;4999720;28;20437;-67
2022/12/17 19:36:42;;;;;;;2.40;0.70;;;;;;;11.95;69.86;95552.00;5008420;28;20947;-68
2022/12/17 19:39:15;;;;;;;6.03;3.97;;;;;;;11.76;70.85;95544.72;5007292;28;20802;-68
2022/12/17 19:41:42;;;;;;;0.47;0.47;;;;;;;12.17;69.05;95559.88;5003710;28;20444;-68
2022/12/17 19:44:15;;;;;;;1.03;0.97;;;;;;;12.28;69.66;95551.00;5004214;28;20535;-68
2022/12/17 19:46:42;;;;;;;1.07;0.67;;;;;;;12.14;68.95;95555.09;5007489;28;20472;-68
2022/12/17 19:49:11;;;;;;;0.20;0.20;;;;;;;11.70;69.92;95543.06;5005119;28;20475;-68
2022/12/17 19:51:41;;;;;;;0.40;0.40;;;;;;;11.69;71.02;95552.00;5004020;28;20549;-67
2022/12/17 19:54:11;;;;;;;0.60;0.60;;;;;;;11.81;70.33;95555.28;4999543;28;20448;-68
2022/12/17 19:56:37;;;;;;;0.10;0.10;;;;;;;11.74;70.50;95565.19;5001277;28;20459;-67
2022/12/17 19:59:06;;;;;;;0.47;0.47;;;;;;;11.61;70.72;95563.69;5004647;28;20449;-67
2022/12/17 20:01:36;;;;;;;0.50;0.50;;;;;;;11.81;70.60;95565.78;5002330;28;20476;-67
2022/12/17 20:04:04;;;;;;;0.50;0.33;;;;;;;11.87;69.82;95570.84;5005298;28;20456;-66
2022/12/17 20:06:34;;;;;;;0.60;0.60;;;;;;;11.77;70.09;95570.72;5004660;28;20487;-69
2022/12/17 20:09:03;;;;;;;5.83;1.87;;;;;;;11.62;70.21;95577.63;5006303;28;20433;-68
2022/12/17 20:11:33;;;;;;;1.27;1.17;;;;;;;11.62;69.89;95577.63;5005596;28;20932;-67
2022/12/17 20:14:07;;;;;;;0.10;0.10;;;;;;;11.67;69.89;95594.25;5005086;28;20492;-69
2022/12/17 20:16:39;;;;;;;2.27;2.07;;;;;;;11.77;70.50;95596.22;5010355;28;20586;-68
2022/12/17 20:19:12;;;;;;;0.67;0.67;;;;;;;12.03;69.03;95600.69;5008785;28;20547;-66
2022/12/17 20:21:40;;;;;;;0.90;0.80;;;;;;;12.21;68.97;95600.34;5007941;28;20527;-69
2022/12/17 20:24:07;;;;;;;0.67;0.67;;;;;;;11.94;68.93;95602.97;5009134;28;20543;-68
2022/12/17 20:26:35;;;;;;;1.20;0.93;;;;;;;11.61;69.66;95607.50;5009898;28;20441;-69
2022/12/17 20:29:03;;;;;;;0.63;0.63;;;;;;;11.62;70.40;95599.41;5002917;28;20487;-70
2022/12/17 20:31:31;;;;;;;0.10;0.10;;;;;;;11.50;70.24;95611.84;5006392;28;20452;-71
2022/12/17 20:34:03;;;;;;;0.43;0.40;;;;;;;11.37;70.46;95609.56;5010049;28;20441;-70
2022/12/17 20:36:30;;;;;;;1.13;1.03;;;;;;;11.49;70.40;95610.28;5010620;28;20995;-67
2022/12/17 20:38:58;;;;;;;0.53;0.53;;;;;;;11.31;70.64;95607.13;5010172;28;20622;-69
2022/12/17 20:41:30;;;;;;;0.67;0.67;;;;;;;11.18;71.60;95609.06;5007301;28;20488;-68
2022/12/17 20:44:00;;;;;;;1.33;1.03;;;;;;;11.52;70.53;95620.28;5011138;28;20501;-70
2022/12/17 20:46:29;;;;;;;2.67;2.47;;;;;;;11.74;73.38;95628.19;5003978;28;20468;-67
2022/12/17 20:48:58;;;;;;;2.23;2.07;;;;;;;11.50;72.75;95632.03;5004277;28;20448;-65
2022/12/17 20:51:27;;;;;;;0.60;0.60;;;;;;;11.67;70.32;95630.22;5003887;28;20832;-67
2022/12/17 20:53:55;;;;;;;0.40;0.40;;;;;;;11.61;69.63;95633.75;5005738;28;20543;-68
2022/12/17 20:56:25;;;;;;;2.13;1.83;;;;;;;11.57;70.13;95637.94;5010139;28;20448;-68
2022/12/17 20:58:58;;;;;;;0.20;0.20;;;;;;;11.54;70.00;95643.66;5010099;28;20480;-70
2022/12/17 21:01:27;;;;;;;0.83;0.83;;;;;;;11.16;71.47;95647.88;5008164;28;20506;-68
2022/12/17 21:03:55;;;;;;;0.70;0.70;;;;;;;11.02;71.43;95651.84;5009879;28;20466;-67
2022/12/17 21:06:25;;;;;;;0.77;0.77;;;;;;;11.08;71.22;95661.38;5006811;28;20930;-71
2022/12/17 21:08:53;;;;;;;0.23;0.23;;;;;;;10.93;71.02;95648.03;5001477;28;20448;-67
2022/12/17 21:11:24;;;;;;;3.23;0.97;;;;;;;11.15;72.73;95651.50;5000903;28;20495;-66
2022/12/17 21:13:52;;;;;;;0.00;0.00;;;;;;;10.89;71.16;95660.00;5007283;28;20480;-67
2022/12/17 21:16:22;;;;;;;1.07;0.93;;;;;;;11.30;69.97;95664.06;5003738;28;20547;-67
2022/12/17 21:18:49;;;;;;;2.53;1.17;;;;;;;10.93;70.17;95663.75;5003032;28;20511;-70
2022/12/17 21:21:19;;;;;;;1.40;1.03;;;;;;;10.79;71.60;95670.34;5011131;28;20480;-68
2022/12/17 21:23:47;;;;;;;0.20;0.20;;;;;;;11.29;69.78;95661.69;5010172;28;20523;-70
2022/12/17 21:26:17;;;;;;;0.63;0.63;;;;;;;11.09;69.93;95678.69;5008805;28;20548;-68
2022/12/17 21:28:45;;;;;;;0.97;0.70;;;;;;;11.07;69.78;95680.78;5010691;28;20874;-67
2022/12/17 21:31:15;;;;;;;0.13;0.13;;;;;;;11.06;70.00;95694.91;5007950;28;20532;-70
2022/12/17 21:33:44;;;;;;;0.13;0.13;;;;;;;11.00;69.49;95682.75;5011067;28;20441;-69
2022/12/17 21:36:11;;;;;;;0.37;0.37;;;;;;;11.22;68.82;95688.88;5010934;28;20529;-66
2022/12/17 21:38:38;;;;;;;0.20;0.20;;;;;;;11.46;68.18;95689.47;5011467;28;20436;-69
2022/12/17 21:41:08;;;;;;;0.20;0.20;;;;;;;11.62;66.96;95682.63;5012302;28;20516;-69
2022/12/17 21:43:35;;;;;;;0.37;0.30;;;;;;;11.66;67.31;95694.25;5009747;28;20479;-67
2022/12/17 21:46:03;;;;;;;0.40;0.40;;;;;;;11.54;66.82;95696.94;5012371;28;20437;-67
2022/12/17 21:48:31;;;;;;;1.17;1.07;;;;;;;10.98;67.82;95692.69;5010687;28;20535;-68
2022/12/17 21:51:10;;;;;;;0.00;0.00;;;;;;;10.84;69.03;95701.09;5010069;28;20511;-68
2022/12/17 21:53:41;;;;;;;0.40;0.40;;;;;;;10.81;68.88;95707.63;5010576;28;20814;-67
2022/12/17 21:56:14;;;;;;;1.70;1.53;;;;;;;11.14;68.68;95710.25;5010618;28;20964;-68
2022/12/17 21:58:43;;;;;;;0.57;0.57;;;;;;;11.11;67.56;95702.84;5010301;28;20956;-65
2022/12/17 22:01:22;;;;;;;0.33;0.33;;;;;;;11.20;66.91;95711.91;5010171;28;20599;-67
2022/12/17 22:03:51;;;;;;;0.83;0.67;;;;;;;11.17;67.04;95719.47;5010066;28;20449;-69
2022/12/17 22:06:23;;;;;;;0.40;0.40;;;;;;;11.09;67.22;95720.66;5010055;28;20536;-68
2022/12/17 22:08:58;;;;;;;0.23;0.23;;;;;;;11.14;66.50;95718.13;5010189;28;20817;-67
2022/12/17 22:11:39;;;;;;;0.37;0.37;;;;;;;10.69;67.83;95725.22;5008395;28;21009;-67
2022/12/17 22:14:08;;;;;;;0.00;0.00;;;;;;;10.83;67.41;95721.28;5009823;28;20469;-65
2022/12/17 22:16:47;;;;;;;0.67;0.63;;;;;;;10.84;67.24;95728.09;5008606;28;20444;-68
2022/12/17 22:19:21;;;;;;;0.50;0.50;;;;;;;10.70;67.13;95734.69;5008042;28;20452;-67
2022/12/17 22:21:50;;;;;;;0.10;0.10;;;;;;;10.89;66.63;95730.81;5009757;28;20891;-68
2022/12/17 22:24:24;;;;;;;0.00;0.00;;;;;;;10.98;65.99;95734.63;5010011;28;21015;-67
2022/12/17 22:26:58;;;;;;;0.50;0.50;;;;;;;10.90;66.09;95724.56;5009591;28;20452;-68
2022/12/17 22:35:01;;;;;;;0.57;0.57;;;;;;;10.89;65.30;95735.28;5008518;28;20440;-68
2022/12/17 22:37:50;;;;;;;2.80;0.63;;;;;;;10.97;65.22;95738.31;5008714;28;20447;-66
2022/12/17 22:41:05;;;;;;;0.00;0.00;;;;;;;10.78;65.34;95736.13;5008121;28;21376;-66
2022/12/17 22:44:06;;;;;;;0.00;0.00;;;;;;;10.66;65.97;95745.84;5008870;28;20447;-70
2022/12/17 22:46:55;;;;;;;7.33;5.73;;;;;;;10.81;67.14;95744.31;5010490;28;20971;-67
2022/12/17 22:49:48;;;;;;;0.90;0.87;;;;;;;10.64;66.77;95746.09;5009965;28;20436;-67
2022/12/17 22:52:17;;;;;;;3.80;2.80;;;;;;;10.85;65.37;95740.19;5010075;28;20444;-69
2022/12/17 22:54:50;;;;;;;0.33;0.33;;;;;;;11.02;64.05;95751.50;5010268;28;20524;-66
2022/12/17 22:57:24;;;;;;;0.20;0.20;;;;;;;10.80;64.24;95747.19;5010179;28;20548;-67
2022/12/17 23:00:15;;;;;;;0.00;0.00;;;;;;;10.37;65.29;95741.66;5009202;28;20532;-65
2022/12/17 23:02:44;;;;;;;0.00;0.00;;;;;;;10.41;64.33;95756.69;5010157;28;20448;-67
2022/12/17 23:05:17;;;;;;;0.00;0.00;;;;;;;10.14;65.77;95763.47;5009613;28;21001;-67
2022/12/17 23:07:49;;;;;;;0.63;0.23;;;;;;;10.36;64.71;95766.25;5009908;28;20461;-67
2022/12/17 23:13:21;;;;;;;0.00;0.00;;;;;;;10.82;63.13;95756.38;4997851;28;20503;-66
2022/12/17 23:15:51;;;;;;;0.90;0.67;;;;;;;10.64;63.18;95785.41;5007913;28;21003;-70
2022/12/17 23:18:25;;;;;;;0.00;0.00;;;;;;;10.44;63.76;95779.78;5008562;28;20472;-69
2022/12/17 23:20:57;;;;;;;0.83;0.63;;;;;;;10.21;64.17;95785.09;5009379;28;20567;-69
2022/12/17 23:23:23;;;;;;;0.00;0.00;;;;;;;10.34;63.57;95794.50;5009823;28;20532;-66
2022/12/17 23:25:52;;;;;;;0.00;0.00;;;;;;;10.18;63.72;95796.03;5007234;28;20445;-66
2022/12/17 23:28:21;;;;;;;0.10;0.10;;;;;;;10.37;63.37;95805.31;5009253;28;20507;-69
2022/12/17 23:30:54;;;;;;;0.52;0.52;;;;;;;10.20;63.31;95783.47;5009353;28;21030;-71
2022/12/17 23:33:26;;;;;;;0.10;0.10;;;;;;;10.22;63.88;95797.16;5009351;28;20201;-70
2022/12/17 23:36:10;;;;;;;0.20;0.20;;;;;;;10.11;63.46;95805.81;5009581;28;20190;-70
2022/12/17 23:38:42;;;;;;;0.00;0.00;;;;;;;10.09;63.40;95792.19;5008891;28;20453;-69
2022/12/17 23:41:30;;;;;;;0.10;0.10;;;;;;;10.15;62.58;95812.19;5009170;28;20998;-68
2022/12/17 23:44:02;;;;;;;0.00;0.00;;;;;;;9.77;63.11;95814.47;4999061;28;20948;-70
2022/12/17 23:46:32;;;;;;;0.40;0.23;;;;;;;10.14;66.83;95808.00;5008226;28;21062;-68
2022/12/17 23:48:59;;;;;;;0.30;0.30;;;;;;;10.02;65.52;95817.63;5007418;28;20448;-66
2022/12/17 23:51:33;;;;;;;0.40;0.40;;;;;;;10.01;64.10;95832.56;5009504;28;20519;-66
2022/12/17 23:54:01;;;;;;;0.40;0.40;;;;;;;9.86;63.61;95834.84;5009063;28;20449;-65
2022/12/17 23:56:29;;;;;;;0.20;0.13;;;;;;;9.43;64.14;95844.03;5009302;28;20459;-67
2022/12/17 23:59:01;;;;;;;0.20;0.20;;;;;;;9.25;63.69;95831.81;5008154;28;20455;-68
